sensor_id;sensor_type;location;lat;lon;timestamp;P1;durP1;ratioP1;P2;durP2;ratioP2
59042;SDS011;44826;51.596;5.624;2022-07-21T00:01:36;10.25;;;8.70;;
59042;SDS011;44826;51.596;5.624;2022-07-21T00:04:02;11.35;;;8.70;;
59042;SDS011;44826;51.596;5.624;2022-07-21T00:06:27;8.93;;;7.55;;
59042;SDS011;44826;51.596;5.624;2022-07-21T00:08:53;8.63;;;7.10;;
59042;SDS011;44826;51.596;5.624;2022-07-21T00:11:18;9.77;;;7.57;;
59042;SDS011;44826;51.596;5.624;2022-07-21T00:13:44;9.75;;;7.28;;
59042;SDS011;44826;51.596;5.624;2022-07-21T00:16:09;9.05;;;7.70;;
59042;SDS011;44826;51.596;5.624;2022-07-21T00:18:35;7.82;;;6.70;;
59042;SDS011;44826;51.596;5.624;2022-07-21T00:21:00;8.52;;;6.85;;
59042;SDS011;44826;51.596;5.624;2022-07-21T00:23:26;9.32;;;6.85;;
59042;SDS011;44826;51.596;5.624;2022-07-21T00:25:52;7.82;;;6.80;;
59042;SDS011;44826;51.596;5.624;2022-07-21T00:28:18;8.18;;;6.70;;
59042;SDS011;44826;51.596;5.624;2022-07-21T00:30:43;8.27;;;6.40;;
59042;SDS011;44826;51.596;5.624;2022-07-21T00:33:10;7.47;;;6.22;;
59042;SDS011;44826;51.596;5.624;2022-07-21T00:35:35;8.20;;;6.03;;
59042;SDS011;44826;51.596;5.624;2022-07-21T00:38:00;7.78;;;6.10;;
59042;SDS011;44826;51.596;5.624;2022-07-21T00:40:26;7.03;;;5.93;;
59042;SDS011;44826;51.596;5.624;2022-07-21T00:42:52;7.63;;;6.45;;
59042;SDS011;44826;51.596;5.624;2022-07-21T00:45:17;7.55;;;6.20;;
59042;SDS011;44826;51.596;5.624;2022-07-21T00:47:43;8.80;;;6.55;;
59042;SDS011;44826;51.596;5.624;2022-07-21T00:50:12;7.65;;;6.28;;
59042;SDS011;44826;51.596;5.624;2022-07-21T00:52:40;7.97;;;6.28;;
59042;SDS011;44826;51.596;5.624;2022-07-21T00:55:06;8.75;;;6.85;;
59042;SDS011;44826;51.596;5.624;2022-07-21T00:57:34;7.63;;;6.28;;
59042;SDS011;44826;51.596;5.624;2022-07-21T01:00:00;8.95;;;7.00;;
59042;SDS011;44826;51.596;5.624;2022-07-21T01:02:28;8.55;;;6.85;;
59042;SDS011;44826;51.596;5.624;2022-07-21T01:04:56;8.70;;;6.75;;
59042;SDS011;44826;51.596;5.624;2022-07-21T01:07:22;9.45;;;6.90;;
59042;SDS011;44826;51.596;5.624;2022-07-21T01:09:48;9.52;;;6.75;;
59042;SDS011;44826;51.596;5.624;2022-07-21T01:12:15;8.75;;;7.13;;
59042;SDS011;44826;51.596;5.624;2022-07-21T01:14:40;8.32;;;7.13;;
59042;SDS011;44826;51.596;5.624;2022-07-21T01:17:06;10.15;;;7.10;;
59042;SDS011;44826;51.596;5.624;2022-07-21T01:19:31;9.05;;;7.13;;
59042;SDS011;44826;51.596;5.624;2022-07-21T01:21:56;8.95;;;7.28;;
59042;SDS011;44826;51.596;5.624;2022-07-21T01:24:22;8.35;;;6.65;;
59042;SDS011;44826;51.596;5.624;2022-07-21T01:26:48;8.80;;;7.30;;
59042;SDS011;44826;51.596;5.624;2022-07-21T01:29:15;10.38;;;7.53;;
59042;SDS011;44826;51.596;5.624;2022-07-21T01:31:42;9.60;;;8.10;;
59042;SDS011;44826;51.596;5.624;2022-07-21T01:34:09;9.93;;;7.68;;
59042;SDS011;44826;51.596;5.624;2022-07-21T01:36:36;9.85;;;7.85;;
59042;SDS011;44826;51.596;5.624;2022-07-21T01:39:03;9.80;;;7.68;;
59042;SDS011;44826;51.596;5.624;2022-07-21T01:41:50;10.98;;;8.25;;
59042;SDS011;44826;51.596;5.624;2022-07-21T01:44:16;10.90;;;8.10;;
59042;SDS011;44826;51.596;5.624;2022-07-21T01:46:43;10.30;;;8.48;;
59042;SDS011;44826;51.596;5.624;2022-07-21T01:49:10;9.40;;;8.07;;
59042;SDS011;44826;51.596;5.624;2022-07-21T01:51:37;10.75;;;8.27;;
59042;SDS011;44826;51.596;5.624;2022-07-21T01:54:03;10.93;;;7.90;;
59042;SDS011;44826;51.596;5.624;2022-07-21T01:56:29;11.57;;;8.20;;
59042;SDS011;44826;51.596;5.624;2022-07-21T01:58:56;11.50;;;8.40;;
59042;SDS011;44826;51.596;5.624;2022-07-21T02:01:22;10.15;;;8.45;;
59042;SDS011;44826;51.596;5.624;2022-07-21T02:03:51;10.60;;;8.80;;
59042;SDS011;44826;51.596;5.624;2022-07-21T02:06:17;11.23;;;8.57;;
59042;SDS011;44826;51.596;5.624;2022-07-21T02:08:43;9.88;;;8.45;;
59042;SDS011;44826;51.596;5.624;2022-07-21T02:11:08;9.90;;;8.35;;
59042;SDS011;44826;51.596;5.624;2022-07-21T02:13:34;9.00;;;7.88;;
59042;SDS011;44826;51.596;5.624;2022-07-21T02:16:00;10.23;;;8.52;;
59042;SDS011;44826;51.596;5.624;2022-07-21T02:18:26;10.70;;;8.13;;
59042;SDS011;44826;51.596;5.624;2022-07-21T02:20:52;11.02;;;8.52;;
59042;SDS011;44826;51.596;5.624;2022-07-21T02:23:18;11.32;;;8.80;;
59042;SDS011;44826;51.596;5.624;2022-07-21T02:25:44;10.45;;;8.57;;
59042;SDS011;44826;51.596;5.624;2022-07-21T02:28:10;9.90;;;8.20;;
59042;SDS011;44826;51.596;5.624;2022-07-21T02:30:36;12.40;;;8.60;;
59042;SDS011;44826;51.596;5.624;2022-07-21T02:33:02;10.23;;;8.27;;
59042;SDS011;44826;51.596;5.624;2022-07-21T02:35:28;10.00;;;8.20;;
59042;SDS011;44826;51.596;5.624;2022-07-21T02:37:53;11.45;;;8.23;;
59042;SDS011;44826;51.596;5.624;2022-07-21T02:40:19;10.63;;;8.23;;
59042;SDS011;44826;51.596;5.624;2022-07-21T02:42:44;11.60;;;8.10;;
59042;SDS011;44826;51.596;5.624;2022-07-21T02:45:10;11.70;;;9.05;;
59042;SDS011;44826;51.596;5.624;2022-07-21T02:50:17;12.85;;;8.57;;
59042;SDS011;44826;51.596;5.624;2022-07-21T02:52:43;12.30;;;9.25;;
59042;SDS011;44826;51.596;5.624;2022-07-21T02:55:09;11.73;;;8.93;;
59042;SDS011;44826;51.596;5.624;2022-07-21T02:57:34;10.68;;;8.40;;
59042;SDS011;44826;51.596;5.624;2022-07-21T02:59:59;12.15;;;8.82;;
59042;SDS011;44826;51.596;5.624;2022-07-21T03:02:25;10.70;;;8.73;;
59042;SDS011;44826;51.596;5.624;2022-07-21T03:04:50;10.23;;;8.20;;
59042;SDS011;44826;51.596;5.624;2022-07-21T03:07:15;11.07;;;8.88;;
59042;SDS011;44826;51.596;5.624;2022-07-21T03:09:41;11.00;;;8.75;;
59042;SDS011;44826;51.596;5.624;2022-07-21T03:12:06;10.55;;;8.23;;
59042;SDS011;44826;51.596;5.624;2022-07-21T03:14:32;12.40;;;9.10;;
59042;SDS011;44826;51.596;5.624;2022-07-21T03:16:57;12.50;;;8.88;;
59042;SDS011;44826;51.596;5.624;2022-07-21T03:19:23;11.35;;;8.63;;
59042;SDS011;44826;51.596;5.624;2022-07-21T03:21:48;11.50;;;8.80;;
59042;SDS011;44826;51.596;5.624;2022-07-21T03:24:14;12.60;;;9.55;;
59042;SDS011;44826;51.596;5.624;2022-07-21T03:26:39;11.90;;;9.00;;
59042;SDS011;44826;51.596;5.624;2022-07-21T03:29:04;11.90;;;8.98;;
59042;SDS011;44826;51.596;5.624;2022-07-21T03:31:29;11.57;;;9.18;;
59042;SDS011;44826;51.596;5.624;2022-07-21T03:33:55;12.43;;;9.07;;
59042;SDS011;44826;51.596;5.624;2022-07-21T03:36:20;12.25;;;8.98;;
59042;SDS011;44826;51.596;5.624;2022-07-21T03:38:47;13.07;;;10.05;;
59042;SDS011;44826;51.596;5.624;2022-07-21T03:41:13;12.27;;;9.57;;
59042;SDS011;44826;51.596;5.624;2022-07-21T03:43:38;13.63;;;10.05;;
59042;SDS011;44826;51.596;5.624;2022-07-21T03:46:03;13.55;;;10.20;;
59042;SDS011;44826;51.596;5.624;2022-07-21T03:48:29;13.30;;;10.52;;
59042;SDS011;44826;51.596;5.624;2022-07-21T03:50:54;14.25;;;10.27;;
59042;SDS011;44826;51.596;5.624;2022-07-21T03:53:19;15.13;;;10.20;;
59042;SDS011;44826;51.596;5.624;2022-07-21T03:55:44;14.25;;;10.80;;
59042;SDS011;44826;51.596;5.624;2022-07-21T03:58:11;13.73;;;10.73;;
59042;SDS011;44826;51.596;5.624;2022-07-21T04:00:38;14.20;;;10.73;;
59042;SDS011;44826;51.596;5.624;2022-07-21T04:03:05;13.73;;;10.10;;
59042;SDS011;44826;51.596;5.624;2022-07-21T04:05:32;13.10;;;10.52;;
59042;SDS011;44826;51.596;5.624;2022-07-21T04:07:57;19.27;;;10.60;;
59042;SDS011;44826;51.596;5.624;2022-07-21T04:10:23;14.73;;;10.85;;
59042;SDS011;44826;51.596;5.624;2022-07-21T04:12:55;15.05;;;11.13;;
59042;SDS011;44826;51.596;5.624;2022-07-21T04:15:21;13.82;;;10.70;;
59042;SDS011;44826;51.596;5.624;2022-07-21T04:17:47;13.90;;;11.05;;
59042;SDS011;44826;51.596;5.624;2022-07-21T04:20:13;13.88;;;11.18;;
59042;SDS011;44826;51.596;5.624;2022-07-21T04:22:39;14.40;;;10.82;;
59042;SDS011;44826;51.596;5.624;2022-07-21T04:25:06;14.57;;;11.00;;
59042;SDS011;44826;51.596;5.624;2022-07-21T04:27:32;15.45;;;10.65;;
59042;SDS011;44826;51.596;5.624;2022-07-21T04:29:58;14.90;;;11.15;;
59042;SDS011;44826;51.596;5.624;2022-07-21T04:32:24;15.13;;;10.40;;
59042;SDS011;44826;51.596;5.624;2022-07-21T04:34:49;13.68;;;10.40;;
59042;SDS011;44826;51.596;5.624;2022-07-21T04:37:14;14.65;;;10.68;;
59042;SDS011;44826;51.596;5.624;2022-07-21T04:39:40;15.80;;;10.55;;
59042;SDS011;44826;51.596;5.624;2022-07-21T04:42:05;12.73;;;10.00;;
59042;SDS011;44826;51.596;5.624;2022-07-21T04:44:30;12.13;;;9.32;;
59042;SDS011;44826;51.596;5.624;2022-07-21T04:46:56;13.32;;;9.65;;
59042;SDS011;44826;51.596;5.624;2022-07-21T04:49:21;12.15;;;9.73;;
59042;SDS011;44826;51.596;5.624;2022-07-21T04:51:47;13.10;;;9.15;;
59042;SDS011;44826;51.596;5.624;2022-07-21T04:54:12;12.40;;;9.77;;
59042;SDS011;44826;51.596;5.624;2022-07-21T04:56:41;15.57;;;9.25;;
59042;SDS011;44826;51.596;5.624;2022-07-21T04:59:07;12.63;;;9.63;;
59042;SDS011;44826;51.596;5.624;2022-07-21T05:01:32;10.93;;;8.13;;
59042;SDS011;44826;51.596;5.624;2022-07-21T05:03:57;11.82;;;8.48;;
59042;SDS011;44826;51.596;5.624;2022-07-21T05:06:23;11.95;;;8.38;;
59042;SDS011;44826;51.596;5.624;2022-07-21T05:08:48;13.13;;;8.52;;
59042;SDS011;44826;51.596;5.624;2022-07-21T05:11:13;11.23;;;8.23;;
59042;SDS011;44826;51.596;5.624;2022-07-21T05:13:39;13.77;;;8.05;;
59042;SDS011;44826;51.596;5.624;2022-07-21T05:16:04;11.43;;;7.90;;
59042;SDS011;44826;51.596;5.624;2022-07-21T05:18:30;10.43;;;7.85;;
59042;SDS011;44826;51.596;5.624;2022-07-21T05:20:57;11.18;;;7.78;;
59042;SDS011;44826;51.596;5.624;2022-07-21T05:23:22;11.43;;;7.88;;
59042;SDS011;44826;51.596;5.624;2022-07-21T05:25:47;10.63;;;7.18;;
59042;SDS011;44826;51.596;5.624;2022-07-21T05:28:12;11.45;;;7.70;;
59042;SDS011;44826;51.596;5.624;2022-07-21T05:30:38;10.02;;;7.40;;
59042;SDS011;44826;51.596;5.624;2022-07-21T05:33:03;9.85;;;7.05;;
59042;SDS011;44826;51.596;5.624;2022-07-21T05:35:28;10.52;;;7.50;;
59042;SDS011;44826;51.596;5.624;2022-07-21T05:37:54;10.57;;;7.40;;
59042;SDS011;44826;51.596;5.624;2022-07-21T05:40:19;10.60;;;7.30;;
59042;SDS011;44826;51.596;5.624;2022-07-21T05:42:44;9.60;;;7.50;;
59042;SDS011;44826;51.596;5.624;2022-07-21T05:45:10;9.27;;;7.50;;
59042;SDS011;44826;51.596;5.624;2022-07-21T05:47:36;9.20;;;7.25;;
59042;SDS011;44826;51.596;5.624;2022-07-21T05:50:02;11.52;;;7.47;;
59042;SDS011;44826;51.596;5.624;2022-07-21T05:52:27;10.75;;;7.47;;
59042;SDS011;44826;51.596;5.624;2022-07-21T05:54:53;13.15;;;7.30;;
59042;SDS011;44826;51.596;5.624;2022-07-21T05:57:18;11.07;;;7.18;;
59042;SDS011;44826;51.596;5.624;2022-07-21T05:59:44;10.73;;;7.13;;
59042;SDS011;44826;51.596;5.624;2022-07-21T06:02:10;12.50;;;6.93;;
59042;SDS011;44826;51.596;5.624;2022-07-21T06:04:35;9.38;;;6.80;;
59042;SDS011;44826;51.596;5.624;2022-07-21T06:07:00;10.52;;;7.20;;
59042;SDS011;44826;51.596;5.624;2022-07-21T06:09:25;9.60;;;6.68;;
59042;SDS011;44826;51.596;5.624;2022-07-21T06:11:51;11.93;;;6.75;;
59042;SDS011;44826;51.596;5.624;2022-07-21T06:14:16;11.25;;;7.13;;
59042;SDS011;44826;51.596;5.624;2022-07-21T06:16:42;9.88;;;7.68;;
59042;SDS011;44826;51.596;5.624;2022-07-21T06:19:07;11.90;;;7.50;;
59042;SDS011;44826;51.596;5.624;2022-07-21T06:21:32;9.93;;;7.30;;
59042;SDS011;44826;51.596;5.624;2022-07-21T06:23:58;10.30;;;7.80;;
59042;SDS011;44826;51.596;5.624;2022-07-21T06:26:24;7.28;;;6.07;;
59042;SDS011;44826;51.596;5.624;2022-07-21T06:28:49;7.50;;;5.47;;
59042;SDS011;44826;51.596;5.624;2022-07-21T06:31:14;7.60;;;5.32;;
59042;SDS011;44826;51.596;5.624;2022-07-21T06:33:40;8.48;;;6.28;;
59042;SDS011;44826;51.596;5.624;2022-07-21T06:36:05;7.72;;;5.85;;
59042;SDS011;44826;51.596;5.624;2022-07-21T06:38:31;9.95;;;7.25;;
59042;SDS011;44826;51.596;5.624;2022-07-21T06:40:57;10.13;;;6.68;;
59042;SDS011;44826;51.596;5.624;2022-07-21T06:43:22;11.27;;;7.88;;
59042;SDS011;44826;51.596;5.624;2022-07-21T06:45:47;11.68;;;7.93;;
59042;SDS011;44826;51.596;5.624;2022-07-21T06:48:12;11.13;;;7.57;;
59042;SDS011;44826;51.596;5.624;2022-07-21T06:50:38;15.75;;;9.05;;
59042;SDS011;44826;51.596;5.624;2022-07-21T06:53:04;14.10;;;9.38;;
59042;SDS011;44826;51.596;5.624;2022-07-21T06:55:30;14.32;;;10.07;;
59042;SDS011;44826;51.596;5.624;2022-07-21T06:57:56;14.70;;;10.63;;
59042;SDS011;44826;51.596;5.624;2022-07-21T07:00:21;16.90;;;11.55;;
59042;SDS011;44826;51.596;5.624;2022-07-21T07:02:47;17.85;;;11.85;;
59042;SDS011;44826;51.596;5.624;2022-07-21T07:05:12;19.67;;;12.15;;
59042;SDS011;44826;51.596;5.624;2022-07-21T07:07:38;21.08;;;12.90;;
59042;SDS011;44826;51.596;5.624;2022-07-21T07:10:03;20.75;;;14.18;;
59042;SDS011;44826;51.596;5.624;2022-07-21T07:12:29;19.10;;;13.68;;
59042;SDS011;44826;51.596;5.624;2022-07-21T07:14:55;20.02;;;13.68;;
59042;SDS011;44826;51.596;5.624;2022-07-21T07:17:20;21.45;;;13.45;;
59042;SDS011;44826;51.596;5.624;2022-07-21T07:19:46;20.33;;;13.23;;
59042;SDS011;44826;51.596;5.624;2022-07-21T07:22:11;19.10;;;12.65;;
59042;SDS011;44826;51.596;5.624;2022-07-21T07:24:37;18.65;;;13.05;;
59042;SDS011;44826;51.596;5.624;2022-07-21T07:27:03;20.50;;;13.35;;
59042;SDS011;44826;51.596;5.624;2022-07-21T07:29:28;20.40;;;12.93;;
59042;SDS011;44826;51.596;5.624;2022-07-21T07:31:54;17.55;;;12.77;;
59042;SDS011;44826;51.596;5.624;2022-07-21T07:34:20;17.38;;;11.73;;
59042;SDS011;44826;51.596;5.624;2022-07-21T07:36:46;19.35;;;12.27;;
59042;SDS011;44826;51.596;5.624;2022-07-21T07:39:11;17.63;;;12.80;;
59042;SDS011;44826;51.596;5.624;2022-07-21T07:41:37;23.13;;;12.80;;
59042;SDS011;44826;51.596;5.624;2022-07-21T07:44:02;18.17;;;12.57;;
59042;SDS011;44826;51.596;5.624;2022-07-21T07:46:28;18.55;;;11.65;;
59042;SDS011;44826;51.596;5.624;2022-07-21T07:48:53;20.02;;;11.88;;
59042;SDS011;44826;51.596;5.624;2022-07-21T07:51:19;17.55;;;11.13;;
59042;SDS011;44826;51.596;5.624;2022-07-21T07:53:44;17.08;;;11.27;;
59042;SDS011;44826;51.596;5.624;2022-07-21T07:56:09;19.30;;;11.65;;
59042;SDS011;44826;51.596;5.624;2022-07-21T07:58:35;16.58;;;10.88;;
59042;SDS011;44826;51.596;5.624;2022-07-21T08:01:00;14.75;;;10.75;;
59042;SDS011;44826;51.596;5.624;2022-07-21T08:03:26;17.02;;;11.00;;
59042;SDS011;44826;51.596;5.624;2022-07-21T08:05:52;17.05;;;10.90;;
59042;SDS011;44826;51.596;5.624;2022-07-21T08:08:20;16.33;;;10.93;;
59042;SDS011;44826;51.596;5.624;2022-07-21T08:10:46;13.90;;;9.45;;
59042;SDS011;44826;51.596;5.624;2022-07-21T08:13:12;14.00;;;9.90;;
59042;SDS011;44826;51.596;5.624;2022-07-21T08:15:39;10.98;;;8.70;;
59042;SDS011;44826;51.596;5.624;2022-07-21T08:18:05;13.00;;;8.07;;
59042;SDS011;44826;51.596;5.624;2022-07-21T08:20:31;9.80;;;7.15;;
59042;SDS011;44826;51.596;5.624;2022-07-21T08:22:56;8.98;;;6.43;;
59042;SDS011;44826;51.596;5.624;2022-07-21T08:25:21;8.65;;;5.68;;
59042;SDS011;44826;51.596;5.624;2022-07-21T08:27:47;8.23;;;4.95;;
59042;SDS011;44826;51.596;5.624;2022-07-21T08:30:12;8.43;;;4.80;;
59042;SDS011;44826;51.596;5.624;2022-07-21T08:32:38;5.85;;;4.40;;
59042;SDS011;44826;51.596;5.624;2022-07-21T08:35:04;6.43;;;4.38;;
59042;SDS011;44826;51.596;5.624;2022-07-21T08:37:33;6.50;;;4.20;;
59042;SDS011;44826;51.596;5.624;2022-07-21T08:40:00;7.38;;;4.70;;
59042;SDS011;44826;51.596;5.624;2022-07-21T08:42:26;6.78;;;4.40;;
59042;SDS011;44826;51.596;5.624;2022-07-21T08:44:51;6.68;;;4.03;;
59042;SDS011;44826;51.596;5.624;2022-07-21T08:47:17;7.28;;;4.30;;
59042;SDS011;44826;51.596;5.624;2022-07-21T08:49:42;5.78;;;4.43;;
59042;SDS011;44826;51.596;5.624;2022-07-21T08:52:11;6.95;;;4.05;;
59042;SDS011;44826;51.596;5.624;2022-07-21T08:54:37;5.32;;;4.05;;
59042;SDS011;44826;51.596;5.624;2022-07-21T08:57:02;5.50;;;3.75;;
59042;SDS011;44826;51.596;5.624;2022-07-21T08:59:28;5.32;;;3.65;;
59042;SDS011;44826;51.596;5.624;2022-07-21T09:01:54;4.93;;;3.70;;
59042;SDS011;44826;51.596;5.624;2022-07-21T09:04:20;4.30;;;3.60;;
59042;SDS011;44826;51.596;5.624;2022-07-21T09:06:53;5.38;;;3.45;;
59042;SDS011;44826;51.596;5.624;2022-07-21T09:09:21;5.10;;;3.33;;
59042;SDS011;44826;51.596;5.624;2022-07-21T09:11:47;4.10;;;3.42;;
59042;SDS011;44826;51.596;5.624;2022-07-21T09:14:14;3.97;;;3.25;;
59042;SDS011;44826;51.596;5.624;2022-07-21T09:16:47;5.82;;;3.47;;
59042;SDS011;44826;51.596;5.624;2022-07-21T09:19:24;4.20;;;3.42;;
59042;SDS011;44826;51.596;5.624;2022-07-21T09:21:55;4.25;;;3.30;;
59042;SDS011;44826;51.596;5.624;2022-07-21T09:24:34;5.57;;;3.47;;
59042;SDS011;44826;51.596;5.624;2022-07-21T09:32:34;4.20;;;3.10;;
59042;SDS011;44826;51.596;5.624;2022-07-21T09:35:05;4.28;;;3.10;;
59042;SDS011;44826;51.596;5.624;2022-07-21T09:37:35;5.38;;;4.28;;
59042;SDS011;44826;51.596;5.624;2022-07-21T09:40:05;4.90;;;3.80;;
59042;SDS011;44826;51.596;5.624;2022-07-21T09:42:41;5.57;;;4.45;;
59042;SDS011;44826;51.596;5.624;2022-07-21T09:45:08;5.97;;;4.70;;
59042;SDS011;44826;51.596;5.624;2022-07-21T09:47:40;6.78;;;5.13;;
59042;SDS011;44826;51.596;5.624;2022-07-21T09:50:07;8.70;;;5.53;;
59042;SDS011;44826;51.596;5.624;2022-07-21T09:52:37;8.02;;;5.38;;
59042;SDS011;44826;51.596;5.624;2022-07-21T09:55:08;7.45;;;5.78;;
59042;SDS011;44826;51.596;5.624;2022-07-21T09:57:39;8.68;;;5.72;;
59042;SDS011;44826;51.596;5.624;2022-07-21T10:00:10;9.23;;;5.65;;
59042;SDS011;44826;51.596;5.624;2022-07-21T10:02:37;8.43;;;5.68;;
59042;SDS011;44826;51.596;5.624;2022-07-21T10:07:38;13.38;;;5.90;;
59042;SDS011;44826;51.596;5.624;2022-07-21T10:10:04;12.52;;;6.50;;
59042;SDS011;44826;51.596;5.624;2022-07-21T10:12:30;9.15;;;5.10;;
59042;SDS011;44826;51.596;5.624;2022-07-21T10:14:56;10.20;;;5.35;;
59042;SDS011;44826;51.596;5.624;2022-07-21T10:17:23;8.23;;;4.88;;
59042;SDS011;44826;51.596;5.624;2022-07-21T10:25:09;14.40;;;4.97;;
59042;SDS011;44826;51.596;5.624;2022-07-21T10:27:35;7.05;;;5.00;;
59042;SDS011;44826;51.596;5.624;2022-07-21T10:30:01;5.75;;;5.10;;
59042;SDS011;44826;51.596;5.624;2022-07-21T10:32:32;8.88;;;4.97;;
59042;SDS011;44826;51.596;5.624;2022-07-21T10:35:01;6.53;;;3.80;;
59042;SDS011;44826;51.596;5.624;2022-07-21T10:37:47;8.35;;;4.07;;
59042;SDS011;44826;51.596;5.624;2022-07-21T10:42:38;7.55;;;4.13;;
59042;SDS011;44826;51.596;5.624;2022-07-21T10:45:06;7.07;;;4.30;;
59042;SDS011;44826;51.596;5.624;2022-07-21T10:47:54;7.18;;;4.78;;
59042;SDS011;44826;51.596;5.624;2022-07-21T10:50:32;6.32;;;3.95;;
59042;SDS011;44826;51.596;5.624;2022-07-21T10:53:04;6.85;;;4.60;;
59042;SDS011;44826;51.596;5.624;2022-07-21T10:55:31;7.72;;;3.58;;
59042;SDS011;44826;51.596;5.624;2022-07-21T10:58:13;4.47;;;3.38;;
59042;SDS011;44826;51.596;5.624;2022-07-21T11:03:25;7.63;;;3.22;;
59042;SDS011;44826;51.596;5.624;2022-07-21T11:06:15;7.78;;;3.28;;
59042;SDS011;44826;51.596;5.624;2022-07-21T11:09:05;7.63;;;3.65;;
59042;SDS011;44826;51.596;5.624;2022-07-21T11:11:32;3.95;;;3.13;;
59042;SDS011;44826;51.596;5.624;2022-07-21T11:24:55;5.93;;;4.00;;
59042;SDS011;44826;51.596;5.624;2022-07-21T11:27:23;6.40;;;3.97;;
59042;SDS011;44826;51.596;5.624;2022-07-21T11:29:52;4.97;;;3.85;;
59042;SDS011;44826;51.596;5.624;2022-07-21T11:32:19;7.32;;;4.53;;
59042;SDS011;44826;51.596;5.624;2022-07-21T11:34:48;6.53;;;4.25;;
59042;SDS011;44826;51.596;5.624;2022-07-21T11:37:17;9.45;;;4.38;;
59042;SDS011;44826;51.596;5.624;2022-07-21T11:39:56;6.55;;;4.57;;
59042;SDS011;44826;51.596;5.624;2022-07-21T11:42:22;8.48;;;4.80;;
59042;SDS011;44826;51.596;5.624;2022-07-21T11:44:49;10.73;;;5.00;;
59042;SDS011;44826;51.596;5.624;2022-07-21T11:47:15;8.60;;;4.72;;
59042;SDS011;44826;51.596;5.624;2022-07-21T11:49:43;10.15;;;5.38;;
59042;SDS011;44826;51.596;5.624;2022-07-21T11:52:13;9.38;;;5.25;;
59042;SDS011;44826;51.596;5.624;2022-07-21T11:54:46;9.00;;;4.57;;
59042;SDS011;44826;51.596;5.624;2022-07-21T11:57:14;8.07;;;4.75;;
59042;SDS011;44826;51.596;5.624;2022-07-21T11:59:40;7.25;;;5.00;;
59042;SDS011;44826;51.596;5.624;2022-07-21T12:02:07;7.80;;;4.88;;
59042;SDS011;44826;51.596;5.624;2022-07-21T12:04:37;8.13;;;4.95;;
59042;SDS011;44826;51.596;5.624;2022-07-21T12:07:42;10.07;;;5.10;;
59042;SDS011;44826;51.596;5.624;2022-07-21T12:12:39;7.50;;;4.60;;
59042;SDS011;44826;51.596;5.624;2022-07-21T12:17:43;7.95;;;4.30;;
59042;SDS011;44826;51.596;5.624;2022-07-21T12:20:09;8.00;;;4.32;;
59042;SDS011;44826;51.596;5.624;2022-07-21T12:22:40;7.85;;;4.28;;
59042;SDS011;44826;51.596;5.624;2022-07-21T12:25:11;14.50;;;5.63;;
59042;SDS011;44826;51.596;5.624;2022-07-21T12:27:38;10.20;;;4.95;;
59042;SDS011;44826;51.596;5.624;2022-07-21T12:30:07;7.95;;;5.25;;
59042;SDS011;44826;51.596;5.624;2022-07-21T12:32:38;8.98;;;5.40;;
59042;SDS011;44826;51.596;5.624;2022-07-21T12:35:04;7.35;;;4.95;;
59042;SDS011;44826;51.596;5.624;2022-07-21T12:40:24;11.02;;;5.00;;
59042;SDS011;44826;51.596;5.624;2022-07-21T12:42:50;13.25;;;5.40;;
59042;SDS011;44826;51.596;5.624;2022-07-21T12:45:17;7.95;;;4.90;;
59042;SDS011;44826;51.596;5.624;2022-07-21T12:50:34;8.27;;;5.38;;
59042;SDS011;44826;51.596;5.624;2022-07-21T12:52:59;8.40;;;5.60;;
59042;SDS011;44826;51.596;5.624;2022-07-21T12:55:25;8.00;;;5.50;;
59042;SDS011;44826;51.596;5.624;2022-07-21T12:57:50;9.20;;;5.75;;
59042;SDS011;44826;51.596;5.624;2022-07-21T13:00:15;8.90;;;6.25;;
59042;SDS011;44826;51.596;5.624;2022-07-21T13:02:59;11.32;;;6.38;;
59042;SDS011;44826;51.596;5.624;2022-07-21T13:05:25;11.00;;;6.43;;
59042;SDS011;44826;51.596;5.624;2022-07-21T13:07:51;7.68;;;6.53;;
59042;SDS011;44826;51.596;5.624;2022-07-21T13:10:17;10.70;;;6.30;;
59042;SDS011;44826;51.596;5.624;2022-07-21T13:12:43;10.40;;;6.50;;
59042;SDS011;44826;51.596;5.624;2022-07-21T13:15:08;12.80;;;6.88;;
59042;SDS011;44826;51.596;5.624;2022-07-21T13:17:34;9.73;;;7.28;;
59042;SDS011;44826;51.596;5.624;2022-07-21T13:19:59;13.07;;;7.25;;
59042;SDS011;44826;51.596;5.624;2022-07-21T13:22:25;10.90;;;7.22;;
59042;SDS011;44826;51.596;5.624;2022-07-21T13:24:50;9.85;;;6.78;;
59042;SDS011;44826;51.596;5.624;2022-07-21T13:27:15;12.43;;;8.30;;
59042;SDS011;44826;51.596;5.624;2022-07-21T13:29:41;13.48;;;7.97;;
59042;SDS011;44826;51.596;5.624;2022-07-21T13:32:06;11.57;;;7.50;;
59042;SDS011;44826;51.596;5.624;2022-07-21T13:34:32;10.50;;;7.30;;
59042;SDS011;44826;51.596;5.624;2022-07-21T13:36:58;8.13;;;5.80;;
59042;SDS011;44826;51.596;5.624;2022-07-21T13:39:23;6.32;;;4.80;;
59042;SDS011;44826;51.596;5.624;2022-07-21T13:41:51;6.28;;;4.50;;
59042;SDS011;44826;51.596;5.624;2022-07-21T13:44:17;8.05;;;4.90;;
59042;SDS011;44826;51.596;5.624;2022-07-21T13:46:43;6.55;;;4.35;;
59042;SDS011;44826;51.596;5.624;2022-07-21T13:49:08;8.65;;;4.60;;
59042;SDS011;44826;51.596;5.624;2022-07-21T13:51:33;4.82;;;4.00;;
59042;SDS011;44826;51.596;5.624;2022-07-21T13:53:58;5.25;;;4.07;;
59042;SDS011;44826;51.596;5.624;2022-07-21T13:56:24;7.63;;;3.97;;
59042;SDS011;44826;51.596;5.624;2022-07-21T13:58:49;7.07;;;3.78;;
59042;SDS011;44826;51.596;5.624;2022-07-21T14:01:14;5.82;;;3.65;;
59042;SDS011;44826;51.596;5.624;2022-07-21T14:03:40;5.13;;;3.97;;
59042;SDS011;44826;51.596;5.624;2022-07-21T14:06:07;7.68;;;4.70;;
59042;SDS011;44826;51.596;5.624;2022-07-21T14:08:32;5.32;;;4.22;;
59042;SDS011;44826;51.596;5.624;2022-07-21T14:10:58;4.85;;;4.13;;
59042;SDS011;44826;51.596;5.624;2022-07-21T14:13:23;6.80;;;4.40;;
59042;SDS011;44826;51.596;5.624;2022-07-21T14:15:48;7.78;;;4.78;;
59042;SDS011;44826;51.596;5.624;2022-07-21T14:18:14;5.53;;;4.68;;
59042;SDS011;44826;51.596;5.624;2022-07-21T14:20:39;6.38;;;4.28;;
59042;SDS011;44826;51.596;5.624;2022-07-21T14:23:05;6.45;;;5.05;;
59042;SDS011;44826;51.596;5.624;2022-07-21T14:25:30;6.55;;;4.72;;
59042;SDS011;44826;51.596;5.624;2022-07-21T14:27:56;7.10;;;5.47;;
59042;SDS011;44826;51.596;5.624;2022-07-21T14:30:23;7.80;;;5.68;;
59042;SDS011;44826;51.596;5.624;2022-07-21T14:32:51;8.65;;;6.22;;
59042;SDS011;44826;51.596;5.624;2022-07-21T14:35:17;7.88;;;6.60;;
59042;SDS011;44826;51.596;5.624;2022-07-21T14:37:44;9.43;;;7.57;;
59042;SDS011;44826;51.596;5.624;2022-07-21T14:40:11;9.65;;;7.68;;
59042;SDS011;44826;51.596;5.624;2022-07-21T14:42:38;9.48;;;7.40;;
59042;SDS011;44826;51.596;5.624;2022-07-21T14:45:05;10.27;;;7.78;;
59042;SDS011;44826;51.596;5.624;2022-07-21T14:47:31;10.45;;;8.43;;
59042;SDS011;44826;51.596;5.624;2022-07-21T14:49:57;8.85;;;7.75;;
59042;SDS011;44826;51.596;5.624;2022-07-21T14:52:22;9.23;;;8.05;;
59042;SDS011;44826;51.596;5.624;2022-07-21T14:54:48;11.95;;;8.23;;
59042;SDS011;44826;51.596;5.624;2022-07-21T14:57:13;9.77;;;7.40;;
59042;SDS011;44826;51.596;5.624;2022-07-21T14:59:39;9.55;;;7.28;;
59042;SDS011;44826;51.596;5.624;2022-07-21T15:02:04;8.45;;;7.40;;
59042;SDS011;44826;51.596;5.624;2022-07-21T15:04:30;11.85;;;7.28;;
59042;SDS011;44826;51.596;5.624;2022-07-21T15:06:55;9.45;;;7.28;;
59042;SDS011;44826;51.596;5.624;2022-07-21T15:09:21;8.55;;;6.90;;
59042;SDS011;44826;51.596;5.624;2022-07-21T15:11:46;10.90;;;7.22;;
59042;SDS011;44826;51.596;5.624;2022-07-21T15:14:11;9.70;;;7.03;;
59042;SDS011;44826;51.596;5.624;2022-07-21T15:16:37;14.27;;;8.98;;
59042;SDS011;44826;51.596;5.624;2022-07-21T15:19:02;7.20;;;6.43;;